Time;durP1;ratioP1;P1;durP2;ratioP2;P2;SDS_P1;SDS_P2;PMS_P1;PMS_P2;Temp;Humidity;BMP_temperature;BMP_pressure;BME280_temperature;BME280_humidity;BME280_pressure;Samples;Min_cycle;Max_cycle;Signal;HPM_P1;HPM_P2
2021/09/30 00:01:21;;;;;;;7.82;4.35;;;;;;;4.01;50.24;100321.19;4903083;29;20048;-76
2021/09/30 00:03:47;;;;;;;6.65;4.03;;;;;;;3.92;50.71;100318.91;4902500;29;20480;-75
2021/09/30 00:06:14;;;;;;;5.43;4.20;;;;;;;3.81;51.23;100326.38;4886785;29;20138;-75
2021/09/30 00:08:44;;;;;;;7.70;4.70;;;;;;;3.79;51.24;100328.19;4901722;29;20055;-76
2021/09/30 00:11:17;;;;;;;7.63;4.70;;;;;;;3.64;51.25;100301.38;4934182;29;20055;-77
2021/09/30 00:14:41;;;;;;;7.05;4.15;;;;;;;3.76;50.84;100321.25;4917842;29;20538;-76
2021/09/30 00:17:02;;;;;;;7.90;4.45;;;;;;;3.72;51.01;100321.38;4918724;29;20127;-76
2021/09/30 00:36:14;;;;;;;9.48;4.43;;;;;;;4.20;50.87;100318.72;4914337;29;20059;-76
2021/09/30 01:21:23;;;;;;;6.47;4.07;;;;;;;5.16;49.12;100339.63;4908205;29;20045;-77
2021/09/30 02:22:28;;;;;;;4.85;3.60;;;;;;;5.42;49.61;100363.25;4875709;29;20106;-76
2021/09/30 02:30:26;;;;;;;7.30;4.10;;;;;;;5.36;50.15;100363.50;4888337;29;20047;-79
2021/09/30 03:01:02;;;;;;;8.40;4.15;;;;;;;5.36;51.05;100377.59;4898293;29;20114;-77
2021/09/30 03:03:30;;;;;;;5.40;3.80;;;;;;;5.35;50.83;100388.28;4888710;29;20047;-78
2021/09/30 03:05:56;;;;;;;12.88;3.72;;;;;;;5.45;51.00;100389.59;4903158;29;20052;-76
2021/09/30 03:08:29;;;;;;;8.90;4.03;;;;;;;5.54;50.68;100388.38;4903225;29;20054;-77
2021/09/30 03:10:57;;;;;;;6.45;4.20;;;;;;;5.64;50.53;100392.31;4887725;29;20499;-77
2021/09/30 03:13:23;;;;;;;9.57;4.38;;;;;;;5.69;50.34;100392.16;4918228;29;20063;-76
2021/09/30 03:15:57;;;;;;;7.40;3.92;;;;;;;5.74;50.62;100398.13;4903039;29;20134;-77
2021/09/30 03:18:27;;;;;;;11.02;3.67;;;;;;;5.79;50.37;100397.00;4904227;29;20142;-77
2021/09/30 03:23:30;;;;;;;7.03;4.03;;;;;;;5.92;49.87;100381.44;4889415;29;20047;-76
2021/09/30 03:25:57;;;;;;;9.00;3.83;;;;;;;6.04;49.99;100394.16;4919199;29;20055;-78
2021/09/30 03:28:24;;;;;;;7.97;3.97;;;;;;;5.97;49.72;100382.06;4903243;29;20103;-75
2021/09/30 03:30:52;;;;;;;7.13;3.85;;;;;;;5.92;49.72;100351.34;4886985;29;20051;-87
2021/09/30 03:33:18;;;;;;;4.10;3.70;;;;;;;6.23;49.61;100399.50;4903568;29;20063;-76
2021/09/30 03:35:57;;;;;;;13.20;5.10;;;;;;;6.14;49.54;100391.09;4906278;29;20126;-78
2021/09/30 03:38:23;;;;;;;6.18;4.40;;;;;;;6.18;49.74;100395.34;4903145;29;20048;-78
2021/09/30 03:40:49;;;;;;;8.45;3.90;;;;;;;6.30;49.61;100410.69;4902754;29;20051;-77
2021/09/30 03:43:16;;;;;;;8.27;4.47;;;;;;;6.19;49.70;100418.28;4886650;29;20047;-78
2021/09/30 03:45:42;;;;;;;13.00;4.85;;;;;;;6.10;49.84;100408.09;4886871;29;20067;-79
2021/09/30 03:48:19;;;;;;;8.73;4.43;;;;;;;6.09;49.97;100407.19;4890436;29;20047;-75
2021/09/30 03:50:57;;;;;;;10.63;4.65;;;;;;;6.10;50.08;100397.47;4888300;29;20139;-76
2021/09/30 03:53:44;;;;;;;10.10;4.82;;;;;;;6.30;49.65;100413.34;4909330;29;20054;-79
2021/09/30 04:01:28;;;;;;;7.55;4.68;;;;;;;6.22;50.14;100431.44;4911573;29;20060;-76
2021/09/30 04:03:55;;;;;;;10.98;4.72;;;;;;;6.20;49.89;100420.00;4906270;29;20097;-79
2021/09/30 04:06:21;;;;;;;8.65;4.80;;;;;;;6.35;49.86;100418.44;4905935;29;20498;-75
2021/09/30 04:08:48;;;;;;;8.18;4.85;;;;;;;6.51;49.52;100435.44;4890063;29;20099;-77
2021/09/30 04:11:15;;;;;;;5.85;4.53;;;;;;;6.49;49.55;100414.22;4890004;29;20044;-75
2021/09/30 04:13:41;;;;;;;7.93;4.90;;;;;;;6.66;49.21;100424.09;4889990;29;20095;-77
2021/09/30 04:16:08;;;;;;;15.63;4.25;;;;;;;6.73;48.91;100430.84;4905849;29;20054;-75
2021/09/30 04:18:34;;;;;;;5.65;4.20;;;;;;;6.68;49.08;100438.16;4905364;29;20055;-77
2021/09/30 04:21:00;;;;;;;7.65;4.15;;;;;;;6.65;48.96;100437.44;4905190;29;20074;-76
2021/09/30 04:23:26;;;;;;;6.65;4.70;;;;;;;6.57;49.28;100435.13;4905288;29;20048;-78
2021/09/30 04:25:53;;;;;;;8.43;4.63;;;;;;;6.50;49.25;100428.38;4921422;29;20101;-81
2021/09/30 04:28:19;;;;;;;8.32;4.80;;;;;;;6.44;49.57;100440.16;4905494;29;20063;-78
2021/09/30 04:30:49;;;;;;;6.10;4.10;;;;;;;6.54;49.74;100436.16;4889868;29;20055;-78
2021/09/30 04:33:22;;;;;;;5.53;4.20;;;;;;;6.60;49.57;100444.75;4891016;29;20499;-77
2021/09/30 04:35:50;;;;;;;5.40;4.43;;;;;;;6.64;49.16;100433.06;4890354;29;20047;-77
2021/09/30 04:38:16;;;;;;;7.50;4.65;;;;;;;6.68;49.31;100437.28;4889054;29;20346;-78
2021/09/30 04:40:44;;;;;;;8.57;4.85;;;;;;;6.82;49.21;100441.03;4905114;29;20055;-77
2021/09/30 04:43:10;;;;;;;11.60;5.53;;;;;;;6.82;49.16;100429.53;4888747;29;20462;-76
2021/09/30 04:45:36;;;;;;;6.03;4.72;;;;;;;7.02;48.85;100433.91;4889228;29;20039;-76
2021/09/30 04:48:31;;;;;;;7.70;5.10;;;;;;;7.21;48.38;100441.84;4906153;29;20491;-77
2021/09/30 04:51:08;;;;;;;9.35;4.93;;;;;;;7.30;48.19;100436.09;4907827;29;20115;-76
2021/09/30 04:53:34;;;;;;;6.90;5.18;;;;;;;7.42;48.22;100435.50;4905120;29;20071;-77
2021/09/30 04:56:00;;;;;;;6.05;4.88;;;;;;;7.43;48.37;100437.19;4905100;29;20098;-77
2021/09/30 04:58:26;;;;;;;7.75;5.22;;;;;;;7.62;47.63;100431.81;4905014;29;20043;-76
2021/09/30 05:00:53;;;;;;;10.90;5.30;;;;;;;7.68;47.25;100433.34;4904146;29;20054;-78
2021/09/30 05:03:19;;;;;;;6.22;4.85;;;;;;;7.82;47.19;100437.94;4903403;29;20071;-77
2021/09/30 05:05:46;;;;;;;7.15;5.05;;;;;;;7.96;47.00;100444.28;4905140;29;20511;-77
2021/09/30 05:08:11;;;;;;;9.05;5.70;;;;;;;8.09;46.54;100441.00;4920385;29;20151;-79
2021/09/30 05:10:43;;;;;;;9.68;5.80;;;;;;;8.23;46.06;100438.44;4904353;29;20118;-76
2021/09/30 05:13:16;;;;;;;8.98;6.00;;;;;;;8.26;45.92;100440.94;4905070;29;20067;-77
2021/09/30 05:15:42;;;;;;;8.40;5.55;;;;;;;8.27;46.27;100445.31;4904353;29;20043;-75
2021/09/30 05:18:33;;;;;;;9.32;5.40;;;;;;;8.40;46.29;100440.25;4936277;29;20051;-76
2021/09/30 05:21:00;;;;;;;15.23;5.50;;;;;;;8.77;48.93;100432.94;4904910;29;20408;-77
2021/09/30 05:23:26;;;;;;;7.20;5.07;;;;;;;9.21;48.81;100441.09;4920536;29;20043;-77
2021/09/30 05:25:52;;;;;;;8.82;6.15;;;;;;;9.18;44.01;100436.81;4920448;29;20103;-76
2021/09/30 05:28:18;;;;;;;12.30;6.15;;;;;;;9.00;43.87;100436.03;4920581;29;20047;-78
2021/09/30 05:30:44;;;;;;;12.85;6.07;;;;;;;9.06;44.67;100442.81;4920128;29;20058;-78
2021/09/30 05:33:20;;;;;;;5.97;4.78;;;;;;;9.17;43.08;100431.53;4920182;29;20087;-77
2021/09/30 05:35:47;;;;;;;6.82;5.00;;;;;;;9.21;42.24;100443.75;4936288;29;20047;-78
2021/09/30 05:38:13;;;;;;;11.98;5.13;;;;;;;9.14;42.56;100445.03;4920790;29;20513;-78
2021/09/30 05:40:40;;;;;;;5.68;4.80;;;;;;;9.18;43.31;100442.16;4935983;29;20055;-77
2021/09/30 05:43:09;;;;;;;10.50;4.82;;;;;;;9.18;42.85;100438.63;4920137;29;20130;-78
2021/09/30 05:45:42;;;;;;;8.80;5.57;;;;;;;9.06;42.69;100433.97;4920958;29;20043;-78
2021/09/30 05:48:08;;;;;;;6.15;5.10;;;;;;;8.87;43.80;100423.47;4919110;29;20051;-77
2021/09/30 05:50:34;;;;;;;12.80;5.60;;;;;;;9.14;43.85;100442.38;4919630;29;20046;-75
2021/09/30 05:53:19;;;;;;;6.40;4.88;;;;;;;9.30;42.54;100435.25;4919817;29;20142;-77
2021/09/30 05:56:05;;;;;;;7.07;5.32;;;;;;;9.20;42.69;100426.91;4893216;29;20054;-75
2021/09/30 05:58:31;;;;;;;8.98;5.00;;;;;;;9.29;43.19;100436.19;4903808;29;20046;-76
2021/09/30 06:01:11;;;;;;;10.60;5.53;;;;;;;9.35;42.35;100435.81;4919614;29;20043;-77
2021/09/30 06:12:17;;;;;;;3.67;3.22;;;;;;;9.61;42.34;100428.13;4872816;29;20511;-76
2021/09/30 06:14:45;;;;;;;4.80;3.40;;;;;;;9.56;41.97;100427.53;4883863;29;20063;-76
2021/09/30 06:17:12;;;;;;;4.75;3.13;;;;;;;9.76;41.70;100427.22;4869764;29;20139;-75
2021/09/30 06:19:40;;;;;;;4.25;3.10;;;;;;;9.83;41.32;100419.72;4855185;29;20044;-75
2021/09/30 06:22:09;;;;;;;3.47;2.90;;;;;;;9.92;41.23;100409.31;4886207;29;20175;-76
2021/09/30 06:24:39;;;;;;;4.07;2.80;;;;;;;10.01;41.07;100397.22;4904990;29;20050;-76
2021/09/30 06:27:05;;;;;;;3.70;2.75;;;;;;;9.99;39.57;100412.47;4919457;29;20056;-77
2021/09/30 06:29:31;;;;;;;2.50;2.30;;;;;;;9.99;38.79;100409.81;4888024;29;20480;-76
2021/09/30 06:32:02;;;;;;;2.83;2.17;;;;;;;9.94;38.60;100410.09;4904202;29;20052;-75
2021/09/30 06:34:46;;;;;;;3.60;2.78;;;;;;;10.06;39.92;100410.31;4906196;29;20488;-79
2021/09/30 06:37:18;;;;;;;5.13;2.67;;;;;;;10.48;45.02;100411.31;4903174;29;20047;-79
2021/09/30 06:39:44;;;;;;;5.38;2.50;;;;;;;10.83;38.89;100409.94;4917884;29;20530;-81
2021/09/30 06:42:10;;;;;;;2.85;2.45;;;;;;;10.71;38.42;100397.34;4903385;29;20047;-75
2021/09/30 06:44:45;;;;;;;2.67;2.47;;;;;;;10.80;37.37;100394.09;4920639;29;20050;-76
2021/09/30 06:47:26;;;;;;;4.05;2.40;;;;;;;10.90;37.21;100411.25;4907353;29;20495;-77
2021/09/30 06:49:59;;;;;;;2.92;2.28;;;;;;;10.74;37.37;100394.47;4919490;29;20159;-76
2021/09/30 06:52:45;;;;;;;4.47;2.63;;;;;;;10.79;36.65;100405.72;4906078;29;20071;-77
2021/09/30 06:55:31;;;;;;;3.45;2.42;;;;;;;10.67;37.10;100411.88;4923205;29;20507;-76
2021/09/30 06:58:38;;;;;;;4.10;2.30;;;;;;;10.31;36.63;100413.22;4927436;29;20046;-77
2021/09/30 07:01:19;;;;;;;2.40;2.20;;;;;;;10.22;36.74;100413.75;4910069;29;20745;-77
2021/09/30 07:04:08;;;;;;;4.20;2.10;;;;;;;10.20;36.66;100402.31;4896043;29;20452;-76
2021/09/30 07:06:46;;;;;;;3.10;2.30;;;;;;;10.17;35.30;100413.19;4918656;29;20091;-77
2021/09/30 07:09:12;;;;;;;2.05;1.95;;;;;;;10.27;35.78;100393.00;4918549;29;20076;-76
2021/09/30 07:11:38;;;;;;;2.47;2.28;;;;;;;10.26;35.88;100407.28;4934176;29;20479;-75
2021/09/30 07:14:04;;;;;;;2.20;2.00;;;;;;;10.35;35.83;100400.53;4918140;29;20051;-77
2021/09/30 07:16:30;;;;;;;2.38;2.17;;;;;;;10.46;34.98;100387.38;4918521;29;20473;-77
2021/09/30 07:18:56;;;;;;;3.15;2.47;;;;;;;10.56;35.28;100395.66;4918581;29;20073;-77
2021/09/30 07:21:22;;;;;;;2.55;1.92;;;;;;;10.24;34.51;100419.88;4918444;29;20040;-77
2021/09/30 07:23:48;;;;;;;2.22;1.98;;;;;;;10.25;34.98;100405.59;4918475;29;20563;-76
2021/09/30 07:26:14;;;;;;;7.43;2.30;;;;;;;10.35;34.74;100401.38;4917852;29;20047;-76
2021/09/30 07:28:40;;;;;;;5.97;2.17;;;;;;;10.58;34.99;100402.63;4918203;29;20142;-75
2021/09/30 07:31:05;;;;;;;2.30;1.98;;;;;;;10.82;34.41;100389.50;4918852;29;20047;-76
2021/09/30 07:33:34;;;;;;;3.70;2.42;;;;;;;10.88;34.42;100389.09;4918837;29;20044;-77
2021/09/30 07:36:00;;;;;;;4.50;2.60;;;;;;;10.91;34.71;100404.97;4917916;29;20502;-77
2021/09/30 07:38:26;;;;;;;5.53;2.83;;;;;;;11.18;34.68;100396.09;4918459;29;20048;-76
2021/09/30 07:40:52;;;;;;;2.75;2.40;;;;;;;11.49;33.66;100394.06;4918130;29;20499;-76
2021/09/30 07:43:18;;;;;;;3.83;2.72;;;;;;;11.42;33.17;100377.53;4918351;29;20399;-76
2021/09/30 07:45:44;;;;;;;3.30;3.00;;;;;;;11.32;33.43;100388.03;4918276;29;20502;-76
2021/09/30 07:48:10;;;;;;;5.93;2.40;;;;;;;11.43;33.04;100390.84;4918209;29;20056;-78
2021/09/30 07:50:37;;;;;;;2.60;2.25;;;;;;;11.77;33.76;100377.84;4918008;29;20495;-77
2021/09/30 07:53:03;;;;;;;3.05;2.30;;;;;;;12.20;32.58;100374.88;4918083;29;20511;-77
2021/09/30 07:55:30;;;;;;;4.30;2.45;;;;;;;11.93;32.76;100393.75;4917948;29;20053;-76
2021/09/30 07:57:56;;;;;;;3.35;2.40;;;;;;;11.57;33.18;100392.56;4917793;29;20048;-76
2021/09/30 08:00:22;;;;;;;4.25;2.67;;;;;;;11.55;33.42;100399.00;4917834;29;20055;-76
2021/09/30 08:02:48;;;;;;;3.28;2.50;;;;;;;11.61;33.29;100387.88;4917963;29;20130;-75
2021/09/30 08:05:14;;;;;;;4.18;2.90;;;;;;;11.94;33.35;100383.88;4918887;29;20054;-76
2021/09/30 08:07:40;;;;;;;3.45;2.58;;;;;;;12.27;32.77;100376.16;4918621;29;20043;-76
2021/09/30 08:10:06;;;;;;;2.47;2.28;;;;;;;12.69;32.25;100379.44;4918975;29;20514;-76
2021/09/30 08:12:32;;;;;;;2.42;2.15;;;;;;;12.86;31.53;100384.44;4933963;29;20487;-76
2021/09/30 08:14:58;;;;;;;2.95;2.30;;;;;;;12.56;31.34;100370.53;4902338;29;20039;-76
2021/09/30 08:17:24;;;;;;;3.45;2.80;;;;;;;12.47;31.60;100377.44;4918031;29;20050;-76
2021/09/30 08:19:50;;;;;;;3.35;2.53;;;;;;;12.52;31.39;100369.03;4917986;29;20102;-76
2021/09/30 08:22:16;;;;;;;2.90;2.55;;;;;;;12.73;31.43;100372.03;4917870;29;20039;-77
2021/09/30 08:24:42;;;;;;;2.75;2.47;;;;;;;13.02;31.13;100367.22;4918169;29;20051;-80
2021/09/30 08:27:09;;;;;;;2.72;2.53;;;;;;;13.21;30.82;100364.88;4934655;29;20043;-76
2021/09/30 08:29:36;;;;;;;7.13;3.03;;;;;;;13.06;30.07;100379.44;4917842;29;20495;-76
2021/09/30 08:32:04;;;;;;;2.50;2.28;;;;;;;12.93;30.80;100375.91;4917438;29;20047;-77
2021/09/30 08:34:30;;;;;;;3.03;2.30;;;;;;;12.94;30.51;100375.81;4917660;29;20056;-76
2021/09/30 08:36:57;;;;;;;3.38;2.63;;;;;;;13.44;30.58;100362.31;4902319;29;20063;-77
2021/09/30 08:39:23;;;;;;;2.17;2.03;;;;;;;13.70;29.59;100369.25;4920794;29;20040;-76
2021/09/30 08:41:49;;;;;;;2.75;2.25;;;;;;;13.43;29.48;100364.16;4921427;29;20040;-75
2021/09/30 08:44:16;;;;;;;5.32;2.65;;;;;;;13.40;29.41;100360.84;4936779;29;20035;-77
2021/09/30 08:46:42;;;;;;;3.53;2.40;;;;;;;13.26;29.36;100370.78;4920936;29;20042;-77
2021/09/30 08:49:08;;;;;;;4.32;2.53;;;;;;;12.59;30.68;100367.63;4921023;29;20052;-76
2021/09/30 08:51:36;;;;;;;2.38;2.17;;;;;;;12.59;30.56;100359.59;4920585;29;20091;-77
2021/09/30 08:54:03;;;;;;;2.58;2.38;;;;;;;12.53;30.87;100343.97;4920413;29;20593;-77
2021/09/30 08:56:33;;;;;;;4.43;2.22;;;;;;;12.83;30.59;100356.97;4920589;29;20380;-78
2021/09/30 08:59:24;;;;;;;2.97;2.70;;;;;;;13.48;30.19;100336.94;4921748;29;20059;-76
2021/09/30 09:02:08;;;;;;;3.50;2.35;;;;;;;13.65;29.94;100347.22;4920636;29;20044;-77
2021/09/30 09:04:34;;;;;;;2.70;2.42;;;;;;;13.57;30.32;100349.66;4920973;29;20170;-77
2021/09/30 09:07:05;;;;;;;2.40;2.17;;;;;;;13.15;30.82;100346.53;4904782;29;20242;-78
2021/09/30 09:09:31;;;;;;;5.78;2.40;;;;;;;12.96;31.23;100338.13;4919983;29;20131;-75
2021/09/30 09:12:08;;;;;;;5.50;2.70;;;;;;;13.25;30.62;100355.63;4904673;29;20138;-76
2021/09/30 09:14:36;;;;;;;5.03;2.47;;;;;;;13.25;29.87;100342.22;4906292;29;20063;-77
2021/09/30 09:17:11;;;;;;;2.77;2.50;;;;;;;13.23;29.64;100346.81;4922987;29;20040;-76
2021/09/30 09:20:04;;;;;;;5.28;2.20;;;;;;;13.19;30.12;100350.69;4887096;29;20523;-77
2021/09/30 09:22:33;;;;;;;2.45;2.25;;;;;;;13.73;29.96;100344.81;4919867;29;20040;-77
2021/09/30 09:25:16;;;;;;;2.55;2.28;;;;;;;13.92;28.70;100335.34;4886880;29;20415;-76
2021/09/30 09:27:52;;;;;;;2.72;2.40;;;;;;;13.86;28.77;100342.03;4889255;29;20086;-76
2021/09/30 09:30:39;;;;;;;3.50;2.83;;;;;;;13.82;29.59;100336.03;4921023;29;20083;-76
2021/09/30 09:33:18;;;;;;;3.00;2.60;;;;;;;14.22;28.70;100342.81;4904150;29;20075;-75
2021/09/30 09:35:55;;;;;;;2.40;2.20;;;;;;;14.47;28.50;100322.88;4905301;29;20079;-76
2021/09/30 09:38:24;;;;;;;2.50;2.30;;;;;;;14.74;27.63;100331.44;4904390;29;20052;-76
2021/09/30 09:40:58;;;;;;;5.75;2.70;;;;;;;14.73;27.68;100321.63;4888319;29;20075;-76
2021/09/30 09:43:31;;;;;;;2.35;1.90;;;;;;;14.70;27.64;100329.09;4904765;29;20086;-77
2021/09/30 09:45:58;;;;;;;2.40;2.20;;;;;;;14.94;27.90;100334.34;4920029;29;20094;-76
2021/09/30 09:48:24;;;;;;;4.85;2.17;;;;;;;15.10;27.64;100324.00;4903818;29;20063;-75
2021/09/30 09:50:53;;;;;;;2.60;2.08;;;;;;;15.10;26.67;100326.69;4904364;29;20081;-77
2021/09/30 09:53:24;;;;;;;2.33;2.08;;;;;;;14.87;27.09;100328.59;4936565;29;20074;-76
2021/09/30 09:55:51;;;;;;;2.35;2.15;;;;;;;15.14;27.47;100317.38;4888669;29;20183;-76
2021/09/30 09:58:18;;;;;;;5.90;2.50;;;;;;;15.05;26.69;100316.31;4902522;29;20470;-76
2021/09/30 10:00:50;;;;;;;3.28;2.20;;;;;;;15.54;25.92;100327.47;4903969;29;20130;-76
2021/09/30 10:03:30;;;;;;;2.33;2.13;;;;;;;15.45;25.42;100333.63;4919687;29;20058;-78
2021/09/30 10:05:58;;;;;;;4.97;2.22;;;;;;;15.39;25.52;100323.41;4889369;29;20098;-76
2021/09/30 10:08:23;;;;;;;2.30;2.10;;;;;;;15.60;25.59;100326.94;4904075;29;20063;-76
2021/09/30 10:10:50;;;;;;;2.17;1.90;;;;;;;15.49;26.10;100324.31;4919502;29;20558;-75
2021/09/30 10:13:16;;;;;;;5.72;2.40;;;;;;;15.48;25.72;100328.84;4888042;29;20090;-76
2021/09/30 10:15:42;;;;;;;4.10;2.40;;;;;;;14.89;26.01;100334.69;4888614;29;20040;-76
2021/09/30 10:18:10;;;;;;;2.85;2.00;;;;;;;15.03;26.31;100322.78;4904031;29;20402;-76
2021/09/30 10:20:37;;;;;;;4.60;2.42;;;;;;;15.46;25.96;100324.59;4903875;29;20135;-77
2021/09/30 10:23:05;;;;;;;3.42;2.45;;;;;;;15.78;24.48;100320.00;4888152;29;20196;-77
2021/09/30 10:25:33;;;;;;;2.40;2.20;;;;;;;15.49;25.14;100329.69;4904436;29;20074;-76
2021/09/30 10:27:59;;;;;;;2.50;2.30;;;;;;;15.22;25.43;100332.88;4903543;29;20530;-76
2021/09/30 10:30:47;;;;;;;2.10;1.88;;;;;;;15.14;25.45;100336.22;4903223;29;20483;-76
2021/09/30 10:33:15;;;;;;;5.00;2.20;;;;;;;14.34;26.64;100339.16;4887928;29;20138;-76
2021/09/30 10:35:51;;;;;;;3.47;2.40;;;;;;;14.88;26.62;100329.44;4887820;29;20074;-76
2021/09/30 10:38:21;;;;;;;3.25;2.00;;;;;;;15.35;25.34;100338.13;4904936;29;20081;-77
2021/09/30 10:41:00;;;;;;;2.28;2.00;;;;;;;15.14;25.37;100329.97;4903818;29;20047;-75
2021/09/30 10:43:26;;;;;;;6.65;2.55;;;;;;;14.84;26.03;100317.22;4903193;29;20051;-76
2021/09/30 10:45:52;;;;;;;3.92;2.35;;;;;;;15.54;25.69;100319.41;4903477;29;20043;-76
2021/09/30 10:48:26;;;;;;;3.17;2.10;;;;;;;15.59;25.24;100338.72;4903082;29;20047;-77
2021/09/30 10:50:57;;;;;;;2.60;2.40;;;;;;;16.29;25.04;100322.84;4903519;29;20095;-78
2021/09/30 10:53:47;;;;;;;4.78;2.65;;;;;;;16.75;24.49;100319.63;4904087;29;20040;-77
2021/09/30 10:56:27;;;;;;;2.75;2.28;;;;;;;17.64;24.10;100317.69;4903648;29;20054;-76
2021/09/30 10:59:23;;;;;;;5.75;3.35;;;;;;;17.20;25.29;100329.91;4902625;29;20055;-77
2021/09/30 11:01:49;;;;;;;2.47;2.28;;;;;;;16.79;25.62;100331.84;4902471;29;20047;-78
2021/09/30 11:04:15;;;;;;;6.03;2.50;;;;;;;16.93;24.20;100315.25;4902881;29;20522;-76
2021/09/30 11:06:41;;;;;;;3.85;2.35;;;;;;;17.36;23.85;100313.13;4918688;29;20045;-75
2021/09/30 11:09:22;;;;;;;2.80;2.50;;;;;;;17.81;23.12;100307.97;4887116;29;20039;-75
2021/09/30 11:11:50;;;;;;;3.35;2.30;;;;;;;17.51;23.58;100306.28;4888293;29;20043;-75
2021/09/30 11:14:21;;;;;;;4.15;2.25;;;;;;;16.91;23.43;100335.28;4887729;29;20062;-78
2021/09/30 11:16:57;;;;;;;2.40;2.20;;;;;;;16.93;23.39;100334.16;4902980;29;20142;-79
2021/09/30 11:19:41;;;;;;;4.97;2.30;;;;;;;17.48;22.42;100339.00;4888630;29;20131;-79
2021/09/30 11:22:10;;;;;;;3.30;2.30;;;;;;;16.95;22.77;100334.00;4890480;29;20446;-78
2021/09/30 11:24:41;;;;;;;5.60;2.53;;;;;;;17.65;24.06;100323.94;4888282;29;20040;-80
2021/09/30 11:27:13;;;;;;;6.68;2.40;;;;;;;18.32;22.56;100322.94;4888858;29;20043;-80
2021/09/30 11:29:41;;;;;;;5.55;2.50;;;;;;;18.02;24.15;100325.88;4887644;29;20082;-80
2021/09/30 11:32:10;;;;;;;5.70;3.00;;;;;;;17.46;23.28;100316.69;4904858;29;20087;-78
2021/09/30 11:35:00;;;;;;;3.88;2.45;;;;;;;17.79;23.27;100309.13;4902528;29;20048;-79
2021/09/30 11:37:40;;;;;;;2.35;2.15;;;;;;;17.38;22.89;100313.84;4889550;29;20048;-79
2021/09/30 11:40:17;;;;;;;3.70;2.40;;;;;;;17.63;25.05;100312.41;4887695;29;20487;-80
2021/09/30 11:42:47;;;;;;;3.17;2.40;;;;;;;19.02;23.94;100304.31;4887706;29;20083;-78
2021/09/30 11:45:23;;;;;;;3.90;2.28;;;;;;;19.83;22.22;100314.22;4902124;29;20486;-78
2021/09/30 11:47:52;;;;;;;5.63;2.42;;;;;;;19.69;22.00;100323.75;4902978;29;20499;-77
2021/09/30 11:50:23;;;;;;;4.75;2.65;;;;;;;19.26;23.14;100322.69;4902318;29;20075;-78
2021/09/30 11:53:01;;;;;;;3.13;2.58;;;;;;;18.82;21.95;100324.41;4885824;29;20055;-78
2021/09/30 11:55:27;;;;;;;3.08;2.05;;;;;;;18.44;23.25;100331.72;4887507;29;20118;-81
2021/09/30 11:57:55;;;;;;;5.50;2.25;;;;;;;17.99;22.98;100326.19;4902350;29;20070;-81
2021/09/30 12:00:21;;;;;;;6.00;2.20;;;;;;;18.18;23.30;100332.38;4886588;29;20052;-80
2021/09/30 12:02:59;;;;;;;2.83;2.22;;;;;;;18.00;23.20;100320.59;4886435;29;20083;-79
2021/09/30 12:05:28;;;;;;;2.05;1.90;;;;;;;16.90;22.47;100320.06;4887487;29;20067;-77
2021/09/30 12:07:55;;;;;;;4.45;2.00;;;;;;;16.29;22.98;100322.84;4901700;29;20040;-76
2021/09/30 12:10:21;;;;;;;2.00;1.90;;;;;;;16.06;23.19;100324.84;4902414;29;20130;-76
2021/09/30 12:12:47;;;;;;;2.53;1.92;;;;;;;16.44;22.61;100305.28;4905089;29;20134;-78
2021/09/30 12:15:23;;;;;;;3.30;1.80;;;;;;;17.13;21.99;100317.97;4890684;29;20174;-78
2021/09/30 12:17:52;;;;;;;6.75;2.13;;;;;;;16.95;21.76;100325.91;4891289;29;20495;-77
2021/09/30 12:20:19;;;;;;;;;;;;;;;16.83;21.65;100327.03;4890280;29;20063;-75
2021/09/30 12:22:50;;;;;;;2.22;2.03;;;;;;;16.91;21.78;100329.88;4905768;29;20001;-76
2021/09/30 12:25:19;;;;;;;8.13;2.40;;;;;;;17.04;21.88;100324.19;4905317;29;20044;-78
2021/09/30 12:27:50;;;;;;;5.18;2.17;;;;;;;17.11;21.69;100326.22;4905538;29;20059;-78
2021/09/30 12:30:37;;;;;;;2.65;1.98;;;;;;;16.96;22.08;100327.59;4905486;29;20106;-74
2021/09/30 12:33:03;;;;;;;2.50;2.00;;;;;;;16.92;21.83;100331.56;4907445;29;20419;-77
2021/09/30 12:35:31;;;;;;;5.57;2.63;;;;;;;16.88;22.00;100320.19;4905238;29;20075;-79
2021/09/30 12:38:11;;;;;;;5.97;2.45;;;;;;;17.38;21.79;100316.56;4905253;29;20092;-79
2021/09/30 12:40:47;;;;;;;2.97;2.13;;;;;;;17.18;22.22;100316.53;4905611;29;20071;-77
2021/09/30 12:43:34;;;;;;;4.70;3.33;;;;;;;16.72;23.09;100320.69;4890788;29;20043;-77
2021/09/30 12:46:04;;;;;;;7.63;3.10;;;;;;;16.52;23.55;100313.56;4905515;29;20072;-77
2021/09/30 12:48:33;;;;;;;;;;;;;;;16.57;23.50;100322.09;4920051;29;20052;-77
2021/09/30 12:51:06;;;;;;;5.60;3.00;;;;;;;17.18;23.22;100311.13;4935858;29;20425;-78
2021/09/30 12:53:51;;;;;;;3.10;2.35;;;;;;;16.91;23.03;100302.88;4920319;29;20047;-77
2021/09/30 12:56:37;;;;;;;3.53;2.15;;;;;;;16.58;23.40;100318.38;4904825;29;20070;-77
2021/09/30 12:59:15;;;;;;;5.32;2.00;;;;;;;16.47;23.88;100315.78;4902057;29;20102;-77
2021/09/30 13:01:42;;;;;;;4.43;2.50;;;;;;;17.01;23.43;100313.69;4902310;29;20051;-78
2021/09/30 13:04:24;;;;;;;9.38;3.00;;;;;;;17.51;23.22;100316.25;4886707;29;20070;-77
2021/09/30 13:07:04;;;;;;;4.00;3.28;;;;;;;17.32;22.98;100303.59;4903686;29;20047;-76
2021/09/30 13:09:50;;;;;;;4.03;3.30;;;;;;;17.36;23.48;100315.84;4887541;29;20062;-76
2021/09/30 13:12:18;;;;;;;5.68;4.18;;;;;;;17.35;23.39;100323.09;4906625;29;20058;-77
2021/09/30 13:14:48;;;;;;;8.10;3.58;;;;;;;17.40;23.57;100325.38;4905275;29;20127;-76
2021/09/30 13:17:16;;;;;;;10.20;4.30;;;;;;;17.24;23.30;100298.91;4905106;29;20056;-76
2021/09/30 13:19:53;;;;;;;3.60;2.70;;;;;;;16.24;24.39;100329.47;4904959;29;20040;-76
2021/09/30 13:22:35;;;;;;;4.05;3.00;;;;;;;15.15;25.40;100316.38;4905989;29;20181;-77
2021/09/30 13:25:23;;;;;;;6.15;3.20;;;;;;;14.60;26.25;100326.31;4888722;29;20040;-77
2021/09/30 13:27:50;;;;;;;6.82;3.50;;;;;;;14.12;26.87;100336.44;4922900;29;20168;-76
2021/09/30 13:30:18;;;;;;;4.75;3.42;;;;;;;13.66;27.52;100313.19;4888805;29;20110;-76
2021/09/30 13:32:44;;;;;;;5.90;3.00;;;;;;;13.40;27.96;100323.25;4889079;29;20134;-75
2021/09/30 13:35:10;;;;;;;9.13;3.42;;;;;;;13.20;28.41;100333.63;4904347;29;20051;-76
2021/09/30 13:37:36;;;;;;;8.15;3.50;;;;;;;12.94;28.80;100337.38;4904227;29;20467;-78
2021/09/30 13:40:07;;;;;;;7.65;3.53;;;;;;;12.53;29.36;100314.47;4873349;29;20070;-77
2021/09/30 13:42:34;;;;;;;4.97;3.22;;;;;;;12.45;29.76;100330.22;4889059;29;20529;-76
2021/09/30 13:45:00;;;;;;;6.68;3.63;;;;;;;12.22;30.15;100330.03;4904239;29;20058;-76
2021/09/30 13:47:28;;;;;;;6.38;3.75;;;;;;;11.96;30.67;100313.16;4903962;29;20048;-77
2021/09/30 13:49:57;;;;;;;7.28;3.47;;;;;;;11.83;30.84;100337.25;4904608;29;20492;-77
2021/09/30 13:52:24;;;;;;;5.50;3.80;;;;;;;11.66;31.01;100329.50;4888838;29;20234;-76
2021/09/30 13:54:52;;;;;;;5.15;3.42;;;;;;;11.53;30.97;100332.16;4919523;29;20507;-77
2021/09/30 13:57:18;;;;;;;5.43;3.40;;;;;;;11.26;31.38;100329.53;4920304;29;20039;-77
2021/09/30 13:59:44;;;;;;;5.68;3.45;;;;;;;11.06;31.76;100332.69;4903884;29;20051;-79
2021/09/30 14:02:10;;;;;;;7.25;3.45;;;;;;;10.89;32.36;100336.47;4904121;29;20055;-77
2021/09/30 14:04:36;;;;;;;8.40;4.03;;;;;;;10.80;32.63;100348.63;4903829;29;20047;-75
2021/09/30 14:07:04;;;;;;;5.95;4.22;;;;;;;10.58;33.00;100329.56;4888366;29;20047;-76
2021/09/30 14:09:32;;;;;;;4.55;3.10;;;;;;;10.50;33.63;100346.13;4903726;29;20531;-76
2021/09/30 14:11:59;;;;;;;5.25;3.28;;;;;;;10.36;34.12;100349.66;4888783;29;20044;-76
2021/09/30 14:14:25;;;;;;;7.50;3.50;;;;;;;10.20;33.80;100332.84;4903589;29;20058;-75
2021/09/30 14:16:51;;;;;;;9.70;3.60;;;;;;;10.20;34.06;100355.06;4903439;29;20044;-76
2021/09/30 14:19:17;;;;;;;7.63;3.42;;;;;;;10.00;34.98;100357.25;4887904;29;20047;-77
2021/09/30 14:21:44;;;;;;;7.25;3.58;;;;;;;9.83;34.80;100335.09;4887983;29;20495;-77
2021/09/30 14:24:10;;;;;;;11.98;3.67;;;;;;;9.84;34.87;100335.97;4918882;29;20070;-78
2021/09/30 14:26:38;;;;;;;9.85;4.28;;;;;;;9.86;34.92;100356.28;4887710;29;20040;-76
2021/09/30 14:29:04;;;;;;;9.35;3.30;;;;;;;9.77;34.84;100359.50;4904484;29;20462;-77
2021/09/30 14:31:31;;;;;;;6.78;3.50;;;;;;;9.71;34.79;100354.56;4887976;29;20050;-76